Terminal Aerodrome Forecast
Issued by NWS

Home | Current Version | Previous Version | Text Only | Print | Product List | Glossary Off
Versions: 1 2 3 4 5 6 7 8 9 10 11 12

000
FTUS43 KOAX 221120
TAFCDR
TAF
KCDR 221120Z 2212/2312 01009KT P6SM SCT120
     FM221600 02010KT P6SM BKN100
     FM222300 03010KT P6SM SCT100 BKN250
     FM230300 01011KT P6SM BKN050 OVC100=

USA.gov is the U.S. government's official web portal to all federal, state and local government web resources and services.